Pays
Station

 

Conditions  météo  pour  Dakar/Yoff  -  Sénégal    Sénégal

  
20 °C
    
 
 

METAR pour Dakar/Yoff :

GOOY 212100Z 02010KT 8000 NSC 20/14 Q1017

 

Voici le bulletin pour Dakar/Yoff - Sénégal.
 
Le bulletin a été fait il y a 58 minutes, à 21:00 UTC .
Le vent soufflait à la vitesse de 5.1 mètres par seconde de Nord/Nord-est (020°).
 
La température était de 20 °C, avec un point de rosée à 14 °C.
La pression atmosphérique était de 1017 hPa.
L'humidité relative était de 68.4%.
 
La visibilité globale était de 8.0 kilomètres.
 

 
 
 

Pays :   A   B   C   D   E   F   G   H   I   J   K   L   M   N   O   P   Q   R   S   T   U   V   W   Y   Z

 

Partenaires :  Info Météo avec Met'info
Météo Marine avec MeteoMarine.net
Infos Site  |  Infos Légales  |  Crédits  |  Confidentialité
Contactez-nous  |  Ajouter aux favoris
© 2013-2019 METAR - Tous droits réservés